Time;durP1;ratioP1;P1;durP2;ratioP2;P2;SDS_P1;SDS_P2;PMS_P1;PMS_P2;Temp;Humidity;BMP_temperature;BMP_pressure;BME280_temperature;BME280_humidity;BME280_pressure;Samples;Min_cycle;Max_cycle;Signal;HPM_P1;HPM_P2
2023/04/19 00:03:01;;;;;;;14.8;12.3;;;;;;;11;83.7;98850;;;;
2023/04/19 00:13:01;;;;;;;14.8;12.3;;;;;;;11.1;83.4;98840;;;;
2023/04/19 00:23:01;;;;;;;14.8;12.3;;;;;;;11.2;82.7;98830;;;;
2023/04/19 00:34:01;;;;;;;17.6;13.7;;;;;;;11.2;82.8;98820;;;;
2023/04/19 00:45:01;;;;;;;17.6;13.7;;;;;;;11.1;83.3;98810;;;;
2023/04/19 00:55:01;;;;;;;17.6;13.7;;;;;;;11.1;83.7;98800;;;;
2023/04/19 01:06:01;;;;;;;18.8;14.4;;;;;;;11;83.7;98790;;;;
2023/04/19 01:17:01;;;;;;;18.8;14.4;;;;;;;11;83.9;98780;;;;
2023/04/19 01:27:01;;;;;;;18.1;14.7;;;;;;;11;84;98770;;;;
2023/04/19 01:38:01;;;;;;;18.1;14.7;;;;;;;10.9;85.1;98760;;;;
2023/04/19 01:49:01;;;;;;;18.1;14.7;;;;;;;10.8;85.8;98750;;;;
2023/04/19 01:59:01;;;;;;;21.1;17.3;;;;;;;10.8;86.1;98740;;;;
2023/04/19 02:10:01;;;;;;;21.1;17.3;;;;;;;10.7;86.7;98720;;;;
2023/04/19 02:20:03;;;;;;;21.1;17.3;;;;;;;10.7;86.6;98710;;;;
2023/04/19 02:30:01;;;;;;;19.6;16.3;;;;;;;10.5;86.6;98700;;;;
2023/04/19 02:41:03;;;;;;;19.6;16.3;;;;;;;10.3;87;98690;;;;
2023/04/19 02:51:01;;;;;;;19.6;16.3;;;;;;;10.3;86.9;98690;;;;
2023/04/19 03:02:01;;;;;;;20.3;15;;;;;;;10.3;86.8;98680;;;;
2023/04/19 03:12:01;;;;;;;20.3;15;;;;;;;10.3;86.5;98680;;;;
2023/04/19 03:22:01;;;;;;;25.4;16.2;;;;;;;10.2;87.6;98670;;;;
2023/04/19 03:33:01;;;;;;;25.4;16.2;;;;;;;10.2;88;98650;;;;
2023/04/19 03:44:01;;;;;;;25.4;16.2;;;;;;;10.2;87.6;98640;;;;
2023/04/19 03:55:01;;;;;;;21.3;18.2;;;;;;;10.1;86.7;98640;;;;
2023/04/19 04:06:01;;;;;;;21.3;18.2;;;;;;;10;86.7;98630;;;;
2023/04/19 04:17:01;;;;;;;22.7;16;;;;;;;10;86.6;98620;;;;
2023/04/19 04:27:02;;;;;;;22.7;16;;;;;;;10;86.1;98620;;;;
2023/04/19 04:37:01;;;;;;;22.7;16;;;;;;;10.1;84.7;98620;;;;
2023/04/19 04:48:01;;;;;;;16.8;12.9;;;;;;;9.9;84.5;98620;;;;
2023/04/19 04:59:01;;;;;;;16.8;12.9;;;;;;;9.9;84.4;98610;;;;
2023/04/19 05:10:01;;;;;;;16.8;12.9;;;;;;;9.8;84.6;98600;;;;
2023/04/19 05:20:01;;;;;;;17.1;11.4;;;;;;;9.8;84.4;98590;;;;
2023/04/19 05:30:01;;;;;;;17.1;11.4;;;;;;;10;84.5;98610;;;;
2023/04/19 05:41:01;;;;;;;17.1;11.4;;;;;;;9.9;84.8;98620;;;;
2023/04/19 05:51:01;;;;;;;13.1;10.7;;;;;;;9.8;84.3;98620;;;;
2023/04/19 06:01:01;;;;;;;13.1;10.7;;;;;;;9.7;84.1;98610;;;;
2023/04/19 06:12:01;;;;;;;13.1;10.7;;;;;;;9.6;84.7;98600;;;;
2023/04/19 06:22:01;;;;;;;13.6;8.9;;;;;;;9.8;84.8;98610;;;;
2023/04/19 06:32:01;;;;;;;13.6;8.9;;;;;;;10;84.5;98610;;;;
2023/04/19 06:43:01;;;;;;;13.6;8.9;;;;;;;10.1;84.2;98610;;;;
2023/04/19 06:53:01;;;;;;;12.6;9.6;;;;;;;10.2;83.8;98610;;;;
2023/04/19 07:03:01;;;;;;;12.6;9.6;;;;;;;10.2;83.4;98600;;;;
2023/04/19 07:14:01;;;;;;;12.6;9.6;;;;;;;10.2;83.2;98610;;;;
2023/04/19 07:25:01;;;;;;;14;10.9;;;;;;;9.9;83.4;98610;;;;
2023/04/19 07:36:01;;;;;;;14;10.9;;;;;;;10;83.1;98610;;;;
2023/04/19 07:46:01;;;;;;;12.1;9.4;;;;;;;10;83.3;98610;;;;
2023/04/19 07:56:01;;;;;;;12.1;9.4;;;;;;;9.5;82.6;98620;;;;
2023/04/19 08:07:03;;;;;;;12.1;9.4;;;;;;;9;82.9;98620;;;;
2023/04/19 08:18:03;;;;;;;8.2;5;;;;;;;8.9;82.6;98630;;;;
2023/04/19 08:28:01;;;;;;;8.2;5;;;;;;;8.9;83;98630;;;;
2023/04/19 08:39:01;;;;;;;8.2;5;;;;;;;8.9;83.1;98630;;;;
2023/04/19 08:49:01;;;;;;;5.9;2.9;;;;;;;8.9;82.5;98640;;;;
2023/04/19 09:00:01;;;;;;;5.9;2.9;;;;;;;8.9;82.3;98640;;;;
2023/04/19 09:10:01;;;;;;;5.9;2.9;;;;;;;9;81.9;98640;;;;
2023/04/19 09:20:01;;;;;;;5.5;3.1;;;;;;;9.1;82.3;98640;;;;
2023/04/19 09:31:01;;;;;;;5.5;3.1;;;;;;;9.2;82.2;98640;;;;
2023/04/19 09:41:01;;;;;;;5.5;3.1;;;;;;;9.2;82;98640;;;;
2023/04/19 09:51:01;;;;;;;5.4;3.3;;;;;;;9.4;81.6;98640;;;;
2023/04/19 10:02:01;;;;;;;5.4;3.3;;;;;;;9.5;80.5;98650;;;;
2023/04/19 10:12:01;;;;;;;5.4;3.3;;;;;;;9.7;80.5;98650;;;;
2023/04/19 10:22:04;;;;;;;7;3.7;;;;;;;9.7;80.3;98640;;;;
2023/04/19 10:32:01;;;;;;;7;3.7;;;;;;;9.8;79.4;98650;;;;
2023/04/19 10:43:01;;;;;;;7;3.7;;;;;;;10;78.9;98650;;;;
2023/04/19 10:54:01;;;;;;;7.4;3.9;;;;;;;10.2;79;98640;;;;
2023/04/19 11:05:01;;;;;;;7.4;3.9;;;;;;;10.8;79.1;98630;;;;
2023/04/19 11:15:01;;;;;;;8.2;4.8;;;;;;;11.3;77;98610;;;;
2023/04/19 11:25:02;;;;;;;8.2;4.8;;;;;;;11.3;75.7;98610;;;;
2023/04/19 11:36:01;;;;;;;8.2;4.8;;;;;;;11.1;76;98620;;;;
2023/04/19 11:46:01;;;;;;;9.1;4.8;;;;;;;11.2;76.2;98620;;;;
2023/04/19 11:57:02;;;;;;;9.1;4.8;;;;;;;10.9;76.9;98640;;;;
2023/04/19 12:08:01;;;;;;;9.1;4.8;;;;;;;10.8;76.9;98650;;;;
2023/04/19 12:18:01;;;;;;;7.6;5.3;;;;;;;10.9;77.3;98650;;;;
2023/04/19 12:29:01;;;;;;;7.6;5.3;;;;;;;10.8;76.7;98650;;;;
2023/04/19 12:40:01;;;;;;;7.6;5.3;;;;;;;10.8;77.3;98650;;;;
2023/04/19 12:50:01;;;;;;;7;5.2;;;;;;;10.9;77.2;98650;;;;
2023/04/19 13:00:01;;;;;;;7;5.2;;;;;;;10.9;77.1;98650;;;;
2023/04/19 13:11:01;;;;;;;7;5.2;;;;;;;10.7;77.4;98640;;;;
2023/04/19 13:22:01;;;;;;;9.1;6.6;;;;;;;10.6;77.8;98640;;;;
2023/04/19 13:33:01;;;;;;;9.1;6.6;;;;;;;10.5;77.8;98640;;;;
2023/04/19 13:44:01;;;;;;;11.3;7.3;;;;;;;10.5;78.3;98650;;;;
2023/04/19 13:54:01;;;;;;;11.3;7.3;;;;;;;10.7;78.7;98640;;;;
2023/04/19 14:04:01;;;;;;;11.3;7.3;;;;;;;11;79;98640;;;;
2023/04/19 14:15:01;;;;;;;10.5;6.6;;;;;;;10.9;78.6;98640;;;;
2023/04/19 14:26:01;;;;;;;10.5;6.6;;;;;;;11;78;98640;;;;
2023/04/19 14:36:01;;;;;;;10.5;6.6;;;;;;;11.4;77.2;98640;;;;
2023/04/19 14:47:01;;;;;;;10.8;7.5;;;;;;;11.5;76;98650;;;;
2023/04/19 14:57:01;;;;;;;10.8;7.5;;;;;;;11.3;76.5;98650;;;;
2023/04/19 15:08:01;;;;;;;10.8;7.5;;;;;;;11.5;77.2;98660;;;;
2023/04/19 15:19:01;;;;;;;10.7;7.8;;;;;;;11.5;76.4;98660;;;;
2023/04/19 15:29:01;;;;;;;10.7;7.8;;;;;;;11.5;75.7;98670;;;;
2023/04/19 15:40:01;;;;;;;10.7;7.8;;;;;;;11.4;76.2;98670;;;;
2023/04/19 15:51:01;;;;;;;11.5;7.9;;;;;;;11.3;76.2;98680;;;;
2023/04/19 16:01:01;;;;;;;11.5;7.9;;;;;;;11.2;76.3;98680;;;;
2023/04/19 16:11:01;;;;;;;11.5;7.9;;;;;;;11.1;76.5;98690;;;;
2023/04/19 16:21:01;;;;;;;123;89.5;;;;;;;11;76.8;98700;;;;
2023/04/19 16:31:01;;;;;;;123;89.5;;;;;;;10.9;76.8;98700;;;;
2023/04/19 16:41:03;;;;;;;123;89.5;;;;;;;10.8;77.2;98700;;;;
2023/04/19 16:51:01;;;;;;;23.5;18.3;;;;;;;10.8;77.9;98710;;;;
2023/04/19 17:01:01;;;;;;;23.5;18.3;;;;;;;10.8;78.5;98720;;;;
2023/04/19 17:11:01;;;;;;;23.5;18.3;;;;;;;10.6;78.6;98720;;;;
2023/04/19 17:22:04;;;;;;;14;9.1;;;;;;;10.3;79.9;98740;;;;
2023/04/19 17:32:01;;;;;;;14;9.1;;;;;;;10.1;81.5;98740;;;;
2023/04/19 17:42:01;;;;;;;14;9.1;;;;;;;9.9;82.1;98740;;;;
2023/04/19 17:53:01;;;;;;;24.9;16;;;;;;;10;82.4;98760;;;;
2023/04/19 18:03:01;;;;;;;24.9;16;;;;;;;9.9;82.5;98770;;;;
2023/04/19 18:14:01;;;;;;;23.6;16.7;;;;;;;9.9;82.6;98780;;;;
2023/04/19 18:24:01;;;;;;;23.6;16.7;;;;;;;9.9;82.5;98790;;;;
2023/04/19 18:35:03;;;;;;;23.6;16.7;;;;;;;9.9;82.7;98800;;;;
2023/04/19 18:45:01;;;;;;;27.2;21.9;;;;;;;9.9;82.6;98800;;;;
2023/04/19 18:56:01;;;;;;;27.2;21.9;;;;;;;9.8;82.9;98810;;;;
2023/04/19 19:07:01;;;;;;;27.2;21.9;;;;;;;9.6;83.7;98820;;;;
2023/04/19 19:18:01;;;;;;;31.8;25.3;;;;;;;9.7;83.7;98820;;;;
2023/04/19 19:28:01;;;;;;;31.8;25.3;;;;;;;9.7;83.5;98830;;;;
2023/04/19 19:39:01;;;;;;;31.8;25.3;;;;;;;9.7;83.8;98830;;;;
2023/04/19 19:50:01;;;;;;;32.9;26.8;;;;;;;9.8;83.3;98830;;;;
2023/04/19 20:00:02;;;;;;;32.9;26.8;;;;;;;9.6;82.9;98830;;;;
2023/04/19 20:11:01;;;;;;;32.9;26.8;;;;;;;9.4;83.5;98830;;;;
2023/04/19 20:21:01;;;;;;;32.7;26.1;;;;;;;9.4;83.4;98830;;;;
2023/04/19 20:31:01;;;;;;;;;;;;;;;9.3;83.1;98830;;;;
2023/04/19 20:41:01;;;;;;;30.6;23.4;;;;;;;9.1;83.2;98830;;;;
2023/04/19 20:52:01;;;;;;;30.6;23.4;;;;;;;8.8;83.2;98840;;;;
2023/04/19 21:03:01;;;;;;;30.6;23.4;;;;;;;8.7;83.9;98850;;;;
2023/04/19 21:14:01;;;;;;;33.3;21.5;;;;;;;8.7;85.9;98840;;;;
2023/04/19 21:24:01;;;;;;;33.3;21.5;;;;;;;8.6;87;98850;;;;
2023/04/19 21:34:01;;;;;;;44;28.8;;;;;;;8.7;87.1;98840;;;;
2023/04/19 21:44:01;;;;;;;44;28.8;;;;;;;8.6;87;98840;;;;
2023/04/19 21:55:01;;;;;;;44;28.8;;;;;;;8.6;87.1;98840;;;;
2023/04/19 22:05:01;;;;;;;42.7;29;;;;;;;8.6;87.2;98840;;;;
2023/04/19 22:15:01;;;;;;;42.7;29;;;;;;;8.8;87.3;98850;;;;
2023/04/19 22:26:01;;;;;;;42.7;29;;;;;;;8.6;87.1;98850;;;;
2023/04/19 22:36:01;;;;;;;45;32.9;;;;;;;8.8;87.4;98840;;;;
2023/04/19 22:46:01;;;;;;;45;32.9;;;;;;;8.6;87.1;98840;;;;
2023/04/19 22:56:01;;;;;;;45;32.9;;;;;;;8.7;87.2;98840;;;;
2023/04/19 23:07:01;;;;;;;49.3;36.9;;;;;;;8.8;87.1;98850;;;;
2023/04/19 23:17:01;;;;;;;49.3;36.9;;;;;;;8.8;86.7;98840;;;;
2023/04/19 23:27:02;;;;;;;49.3;36.9;;;;;;;8.8;86.2;98830;;;;
2023/04/19 23:38:01;;;;;;;43.2;32.9;;;;;;;8.8;86.3;98830;;;;
2023/04/19 23:49:01;;;;;;;43.2;32.9;;;;;;;8.7;86.1;98830;;;;
2023/04/19 23:59:01;;;;;;;43.2;32.9;;;;;;;8.7;86.4;98820;;;;
